Ansley, Nebraska
Current Conditions -  °F | °C
As of 3:42 AM on Thursday 23 Oct 2014 (Local Time) from KBBW Reporting Station
Haze Haze  
Wind Chill: 41°   Ceiling: 100
Heat Index: 41°   Visibility: 1.2mi
Dew Point: 40°   Wind: 0mph
Humidity: 96%   Direction: NA
Pressure: 30.06"   Gusts: NA
Location:  41.29°N, 99.38°W
Report Text: KBBW 230842Z AUTO 00000KT 1 1/4SM BR OVC001 05/04 A3006 RMK AO2 T00500044
Loading
Personal Weather Stations






























Interactive Weather Map
Tropical Storm Tracking
New forecast layout! Learn more

10-Day Weather Forecast

Advertisements
Track Severe Weather on mobile